createdAt,value
2022-08-21T00:00:59.196Z,101212.00
2022-08-21T00:03:26.752Z,101194.00
2022-08-21T00:05:54.346Z,101199.00
2022-08-21T00:08:21.720Z,101199.00
2022-08-21T00:10:49.241Z,101187.00
2022-08-21T00:13:18.980Z,101189.00
2022-08-21T00:15:46.534Z,101188.00
2022-08-21T00:18:14.249Z,101183.00
2022-08-21T00:20:42.601Z,101180.00
2022-08-21T00:23:09.745Z,101186.00
2022-08-21T00:25:36.969Z,101179.00
2022-08-21T00:28:05.424Z,101176.00
2022-08-21T00:30:32.574Z,101177.00
2022-08-21T00:33:00.320Z,101175.00
2022-08-21T00:35:31.153Z,101176.00
2022-08-21T00:37:58.307Z,101169.00
2022-08-21T00:40:29.633Z,101178.00
2022-08-21T00:42:56.620Z,101168.00
2022-08-21T00:45:23.960Z,101171.00
2022-08-21T00:47:52.151Z,101175.00
2022-08-21T00:50:21.907Z,101175.00
2022-08-21T00:52:53.303Z,101172.00
2022-08-21T00:55:21.805Z,101186.00
2022-08-21T00:57:53.327Z,101187.00
2022-08-21T01:00:30.235Z,101187.00
2022-08-21T01:03:02.516Z,101189.00
2022-08-21T01:05:34.480Z,101181.00
2022-08-21T01:08:01.322Z,101193.00
2022-08-21T01:10:28.979Z,101191.00
2022-08-21T01:12:57.357Z,101191.00
2022-08-21T01:15:27.548Z,101193.00
2022-08-21T01:17:54.721Z,101196.00
2022-08-21T01:20:21.686Z,101196.00
2022-08-21T01:22:48.519Z,101198.00
2022-08-21T01:25:16.992Z,101199.00
2022-08-21T01:27:44.736Z,101193.00
2022-08-21T01:30:15.850Z,101195.00
2022-08-21T01:32:42.997Z,101201.00
2022-08-21T01:35:10.340Z,101198.00
2022-08-21T01:37:37.204Z,101194.00
2022-08-21T01:40:05.318Z,101201.00
2022-08-21T01:42:32.282Z,101189.00
2022-08-21T01:44:59.212Z,101202.00
2022-08-21T01:47:26.313Z,101189.00
2022-08-21T01:49:53.840Z,101194.00
2022-08-21T01:52:20.623Z,101203.00
2022-08-21T01:54:51.166Z,101202.00
2022-08-21T01:57:23.021Z,101197.00
2022-08-21T01:59:53.848Z,101194.00
2022-08-21T02:02:20.815Z,101199.00
2022-08-21T02:04:47.733Z,101197.00
2022-08-21T02:07:14.543Z,101200.00
2022-08-21T02:09:43.067Z,101195.00
2022-08-21T02:12:11.095Z,101198.00
2022-08-21T02:14:38.094Z,101197.00
2022-08-21T02:17:09.731Z,101201.00
2022-08-21T02:19:40.429Z,101192.00
2022-08-21T02:22:11.861Z,101190.00
2022-08-21T02:24:53.685Z,101194.00
2022-08-21T02:27:26.564Z,101199.00
2022-08-21T02:29:56.179Z,101194.00
2022-08-21T02:32:22.985Z,101197.00
2022-08-21T02:34:49.970Z,101208.00
2022-08-21T02:37:16.875Z,101205.00
2022-08-21T02:39:43.767Z,101201.00
2022-08-21T02:42:10.563Z,101202.00
2022-08-21T02:44:37.356Z,101196.00
2022-08-21T02:47:04.264Z,101207.00
2022-08-21T02:49:31.290Z,101195.00
2022-08-21T02:51:58.091Z,101202.00
2022-08-21T02:54:25.072Z,101196.00
2022-08-21T02:56:51.935Z,101205.00
2022-08-21T02:59:19.133Z,101194.00
2022-08-21T03:01:46.047Z,101194.00
2022-08-21T03:04:12.916Z,101194.00
2022-08-21T03:06:39.690Z,101192.00
2022-08-21T03:09:06.804Z,101183.00
2022-08-21T03:11:33.668Z,101177.00
2022-08-21T03:14:00.686Z,101179.00
2022-08-21T03:16:30.014Z,101182.00
2022-08-21T03:18:58.814Z,101178.00
2022-08-21T03:21:25.606Z,101172.00
2022-08-21T03:23:52.405Z,101172.00
2022-08-21T03:26:19.769Z,101164.00
2022-08-21T03:28:46.719Z,101164.00
2022-08-21T03:31:13.562Z,101169.00
2022-08-21T03:33:40.564Z,101161.00
2022-08-21T03:36:08.481Z,101164.00
2022-08-21T03:38:36.301Z,101159.00
2022-08-21T03:41:04.952Z,101164.00
2022-08-21T03:43:32.855Z,101168.00
2022-08-21T03:46:02.242Z,101159.00
2022-08-21T03:48:29.549Z,101158.00
2022-08-21T03:50:57.482Z,101161.00
2022-08-21T03:53:24.557Z,101159.00
2022-08-21T03:55:53.567Z,101152.00
2022-08-21T03:58:24.400Z,101154.00
2022-08-21T04:00:54.593Z,101161.00
2022-08-21T04:03:21.514Z,101164.00
2022-08-21T04:05:48.473Z,101166.00
2022-08-21T04:08:19.523Z,101164.00
2022-08-21T04:10:49.386Z,101167.00
2022-08-21T04:13:16.221Z,101166.00
2022-08-21T04:15:43.512Z,101180.00
2022-08-21T04:18:10.863Z,101174.00
2022-08-21T04:20:38.079Z,101175.00
2022-08-21T04:23:04.936Z,101167.00
2022-08-21T04:25:31.978Z,101168.00
2022-08-21T04:27:59.017Z,101170.00
2022-08-21T04:30:28.367Z,101177.00
2022-08-21T04:32:57.816Z,101170.00
2022-08-21T04:35:26.421Z,101171.00
2022-08-21T04:37:53.313Z,101167.00
2022-08-21T04:40:22.438Z,101171.00
2022-08-21T04:42:51.931Z,101179.00
2022-08-21T04:45:26.672Z,101172.00
2022-08-21T04:47:55.831Z,101174.00
2022-08-21T04:50:36.740Z,101176.00
2022-08-21T04:53:05.775Z,101175.00
2022-08-21T04:55:32.678Z,101178.00
2022-08-21T04:58:00.405Z,101181.00
2022-08-21T05:00:27.339Z,101177.00
2022-08-21T05:02:57.281Z,101182.00
2022-08-21T05:05:24.922Z,101179.00
2022-08-21T05:07:53.070Z,101186.00
2022-08-21T05:10:20.647Z,101182.00
2022-08-21T05:12:47.555Z,101182.00
2022-08-21T05:15:18.189Z,101175.00
2022-08-21T05:17:53.655Z,101184.00
2022-08-21T05:20:27.471Z,101187.00
2022-08-21T05:22:54.438Z,101174.00
2022-08-21T05:25:22.114Z,101188.00
2022-08-21T05:27:49.294Z,101187.00
2022-08-21T05:30:19.888Z,101183.00
2022-08-21T05:32:47.250Z,101187.00
2022-08-21T05:35:14.667Z,101183.00
2022-08-21T05:37:41.531Z,101197.00
2022-08-21T05:40:22.703Z,101190.00
2022-08-21T05:42:55.358Z,101195.00
2022-08-21T05:45:42.302Z,101176.00
2022-08-21T05:48:31.182Z,101187.00
2022-08-21T05:50:58.227Z,101182.00
2022-08-21T05:53:25.512Z,101182.00
2022-08-21T05:55:52.935Z,101184.00
2022-08-21T05:58:21.944Z,101178.00
2022-08-21T06:00:49.624Z,101178.00
2022-08-21T06:03:22.618Z,101170.00
2022-08-21T06:05:49.531Z,101177.00
2022-08-21T06:08:17.837Z,101182.00
2022-08-21T06:10:45.391Z,101175.00
2022-08-21T06:13:14.929Z,101174.00
2022-08-21T06:15:41.854Z,101173.00
2022-08-21T06:18:08.985Z,101177.00
2022-08-21T06:20:36.353Z,101175.00
2022-08-21T06:23:03.660Z,101167.00
2022-08-21T06:25:31.128Z,101167.00
2022-08-21T06:28:03.370Z,101167.00
2022-08-21T06:30:30.333Z,101176.00
2022-08-21T06:32:57.162Z,101174.00
2022-08-21T06:35:25.465Z,101178.00
2022-08-21T06:37:52.308Z,101174.00
2022-08-21T06:40:19.221Z,101178.00
2022-08-21T06:42:46.240Z,101173.00
2022-08-21T06:45:14.887Z,101180.00
2022-08-21T06:47:41.719Z,101197.00
2022-08-21T06:50:09.442Z,101189.00
2022-08-21T06:52:39.771Z,101188.00
2022-08-21T06:55:09.660Z,101200.00
2022-08-21T06:57:36.769Z,101194.00
2022-08-21T07:00:08.965Z,101192.00
2022-08-21T07:02:37.711Z,101196.00
2022-08-21T07:05:10.162Z,101206.00
2022-08-21T07:07:46.372Z,101205.00
2022-08-21T07:10:22.467Z,101198.00
2022-08-21T07:12:52.605Z,101206.00
2022-08-21T07:15:28.449Z,101214.00
2022-08-21T07:17:55.346Z,101242.00
2022-08-21T07:20:22.122Z,101246.00
2022-08-21T07:22:49.277Z,101245.00
2022-08-21T07:25:16.061Z,101274.00
2022-08-21T07:27:42.845Z,101266.00
2022-08-21T07:30:10.038Z,101266.00
2022-08-21T07:32:37.284Z,101286.00
2022-08-21T07:35:04.456Z,101278.00
2022-08-21T07:37:31.234Z,101278.00
2022-08-21T07:39:58.150Z,101280.00
2022-08-21T07:42:25.457Z,101288.00
2022-08-21T07:44:53.103Z,101298.00
2022-08-21T07:47:41.714Z,101296.00
2022-08-21T07:50:11.927Z,101288.00
2022-08-21T07:52:39.738Z,101312.00
2022-08-21T07:55:07.550Z,101294.00
2022-08-21T07:57:34.547Z,101301.00
2022-08-21T08:00:01.369Z,101298.00
2022-08-21T08:02:31.079Z,101289.00
2022-08-21T08:05:04.879Z,101287.00
2022-08-21T08:07:31.686Z,101295.00
2022-08-21T08:09:59.420Z,101288.00
2022-08-21T08:12:30.398Z,101303.00
2022-08-21T08:14:58.346Z,101287.00
2022-08-21T08:17:25.370Z,101293.00
2022-08-21T08:19:52.644Z,101288.00
2022-08-21T08:22:22.293Z,101274.00
2022-08-21T08:24:49.353Z,101294.00
2022-08-21T08:27:17.289Z,101288.00
2022-08-21T08:29:44.949Z,101289.00
2022-08-21T08:32:12.155Z,101303.00
2022-08-21T08:34:39.891Z,101298.00
2022-08-21T08:37:08.633Z,101325.00
2022-08-21T08:39:39.670Z,101301.00
2022-08-21T08:42:33.524Z,101296.00
2022-08-21T08:45:12.274Z,101290.00
2022-08-21T08:47:52.713Z,101282.00
2022-08-21T08:50:27.063Z,101287.00
2022-08-21T08:53:01.146Z,101292.00
2022-08-21T08:55:40.996Z,101290.00
2022-08-21T08:58:09.761Z,101263.00
2022-08-21T09:00:36.587Z,101264.00
2022-08-21T09:03:04.360Z,101261.00
2022-08-21T09:06:03.002Z,101269.00
2022-08-21T09:08:58.112Z,101285.00
2022-08-21T09:11:47.887Z,101277.00
2022-08-21T09:14:44.113Z,101276.00
2022-08-21T09:17:38.445Z,101279.00
2022-08-21T09:20:33.753Z,101272.00
2022-08-21T09:23:29.880Z,101285.00
2022-08-21T09:26:06.050Z,101278.00
2022-08-21T09:28:35.780Z,101281.00
2022-08-21T09:31:07.870Z,101296.00
2022-08-21T09:33:34.906Z,101287.00
2022-08-21T09:36:01.812Z,101267.00
2022-08-21T09:38:34.263Z,101274.00
2022-08-21T09:41:07.548Z,101284.00
2022-08-21T09:43:34.926Z,101271.00
2022-08-21T09:46:28.616Z,101287.00
2022-08-21T09:49:02.020Z,101283.00
2022-08-21T09:51:32.780Z,101267.00
2022-08-21T09:54:08.940Z,101278.00
2022-08-21T09:57:14.389Z,101277.00
2022-08-21T09:59:43.314Z,101271.00
2022-08-21T10:02:36.744Z,101274.00
2022-08-21T10:05:15.998Z,101271.00
2022-08-21T10:07:43.579Z,101286.00
2022-08-21T10:10:29.204Z,101274.00
2022-08-21T10:13:31.111Z,101263.00
2022-08-21T10:16:03.979Z,101273.00
2022-08-21T10:18:50.620Z,101251.00
2022-08-21T10:21:39.878Z,101260.00
2022-08-21T10:24:31.255Z,101268.00
2022-08-21T10:27:01.700Z,101260.00
2022-08-21T10:29:51.830Z,101262.00
2022-08-21T10:32:33.913Z,101251.00
2022-08-21T10:35:31.763Z,101235.00
2022-08-21T10:38:50.356Z,101261.00
2022-08-21T10:41:22.516Z,101244.00
2022-08-21T10:44:29.281Z,101261.00
2022-08-21T10:46:58.958Z,101259.00
2022-08-21T10:49:45.905Z,101263.00
2022-08-21T10:52:58.935Z,101239.00
2022-08-21T10:55:33.278Z,101244.00
2022-08-21T10:58:10.975Z,101244.00
2022-08-21T11:01:05.688Z,101246.00
2022-08-21T11:03:54.843Z,101274.00
2022-08-21T11:06:28.137Z,101248.00
2022-08-21T11:09:14.516Z,101226.00
2022-08-21T11:11:53.787Z,101238.00
2022-08-21T11:15:03.708Z,101241.00
2022-08-21T11:17:56.519Z,101245.00
2022-08-21T11:20:31.204Z,101259.00
2022-08-21T11:23:04.543Z,101253.00
2022-08-21T11:25:52.342Z,101264.00
2022-08-21T11:28:22.762Z,101247.00
2022-08-21T11:31:00.280Z,101272.00
2022-08-21T11:33:45.379Z,101289.00
2022-08-21T11:36:21.943Z,101267.00
2022-08-21T11:39:31.835Z,101271.00
2022-08-21T11:42:15.954Z,101279.00
2022-08-21T11:44:56.235Z,101292.00
2022-08-21T11:47:42.401Z,101303.00
2022-08-21T11:50:34.914Z,101286.00
2022-08-21T11:53:11.007Z,101296.00
2022-08-21T11:56:01.549Z,101289.00
2022-08-21T11:58:28.303Z,101311.00
2022-08-21T12:01:07.477Z,101306.00
2022-08-21T12:03:36.996Z,101292.00
2022-08-21T12:06:08.009Z,101291.00
2022-08-21T12:08:36.442Z,101267.00
2022-08-21T12:11:19.137Z,101277.00
2022-08-21T12:14:07.469Z,101277.00
2022-08-21T12:16:40.394Z,101310.00
2022-08-21T12:19:08.789Z,101306.00
2022-08-21T12:21:49.111Z,101315.00
2022-08-21T12:24:15.818Z,101283.00
2022-08-21T12:26:52.267Z,101332.00
2022-08-21T12:29:38.536Z,101309.00
2022-08-21T12:32:11.498Z,101325.00
2022-08-21T12:35:06.570Z,101335.00
2022-08-21T12:37:48.554Z,101314.00
2022-08-21T12:40:23.197Z,101314.00
2022-08-21T12:43:00.808Z,101309.00
2022-08-21T12:45:40.736Z,101299.00
2022-08-21T12:48:11.749Z,101290.00
2022-08-21T12:50:48.824Z,101317.00
2022-08-21T12:53:31.316Z,101306.00
2022-08-21T12:56:04.571Z,101311.00
2022-08-21T12:58:32.126Z,101304.00
2022-08-21T13:01:08.723Z,101284.00
2022-08-21T13:03:37.874Z,101290.00
2022-08-21T13:06:06.023Z,101304.00
2022-08-21T13:08:38.913Z,101300.00
2022-08-21T13:11:13.434Z,101296.00
2022-08-21T13:13:45.647Z,101291.00
2022-08-21T13:16:27.561Z,101273.00
2022-08-21T13:19:06.414Z,101277.00
2022-08-21T13:21:36.273Z,101285.00
2022-08-21T13:24:40.858Z,101289.00
2022-08-21T13:27:03.393Z,101289.00
2022-08-21T13:29:35.975Z,101284.00
2022-08-21T13:32:10.779Z,101278.00
2022-08-21T13:34:39.151Z,101280.00
2022-08-21T13:37:09.543Z,101284.00
2022-08-21T13:39:54.873Z,101282.00
2022-08-21T13:42:21.963Z,101265.00
2022-08-21T13:44:55.171Z,101277.00
2022-08-21T13:47:22.082Z,101259.00
2022-08-21T13:49:52.311Z,101269.00
2022-08-21T13:52:27.512Z,101273.00
2022-08-21T13:55:08.369Z,101272.00
2022-08-21T13:57:37.940Z,101274.00
2022-08-21T14:00:21.433Z,101265.00
2022-08-21T14:02:52.646Z,101235.00
2022-08-21T14:05:27.075Z,101263.00
2022-08-21T14:08:05.757Z,101259.00
2022-08-21T14:10:32.654Z,101258.00
2022-08-21T14:13:04.641Z,101241.00
2022-08-21T14:15:33.479Z,101247.00
2022-08-21T14:18:18.807Z,101259.00
2022-08-21T14:20:46.279Z,101255.00
2022-08-21T14:23:14.670Z,101259.00
2022-08-21T14:25:44.734Z,101257.00
2022-08-21T14:28:27.919Z,101255.00
2022-08-21T14:30:56.850Z,101237.00
2022-08-21T14:33:32.555Z,101241.00
2022-08-21T14:35:59.984Z,101244.00
2022-08-21T14:38:28.503Z,101238.00
2022-08-21T14:41:04.985Z,101247.00
2022-08-21T14:43:31.805Z,101229.00
2022-08-21T14:45:58.591Z,101269.00
2022-08-21T14:48:25.452Z,101262.00
2022-08-21T14:50:55.959Z,101268.00
2022-08-21T14:53:25.308Z,101236.00
2022-08-21T14:56:07.916Z,101261.00
2022-08-21T14:58:38.302Z,101231.00
2022-08-21T15:01:10.100Z,101257.00
2022-08-21T15:03:37.369Z,101244.00
2022-08-21T15:06:06.668Z,101254.00
2022-08-21T15:08:35.781Z,101254.00
2022-08-21T15:11:13.730Z,101247.00
2022-08-21T15:13:45.856Z,101242.00
2022-08-21T15:16:13.392Z,101247.00
2022-08-21T15:18:41.058Z,101263.00
2022-08-21T15:21:07.843Z,101238.00
2022-08-21T15:23:35.869Z,101251.00
2022-08-21T15:26:06.783Z,101236.00
2022-08-21T15:28:35.311Z,101238.00
2022-08-21T15:31:02.504Z,101235.00
2022-08-21T15:33:29.777Z,101226.00
2022-08-21T15:35:56.848Z,101219.00
2022-08-21T15:38:23.727Z,101224.00
2022-08-21T15:40:51.999Z,101221.00
2022-08-21T15:43:30.045Z,101229.00
2022-08-21T15:46:00.185Z,101202.00
2022-08-21T15:48:29.518Z,101207.00
2022-08-21T15:50:56.435Z,101196.00
2022-08-21T15:53:23.606Z,101182.00
2022-08-21T15:55:50.414Z,101178.00
2022-08-21T15:58:18.014Z,101170.00
2022-08-21T16:00:48.509Z,101184.00
2022-08-21T16:03:17.772Z,101165.00
2022-08-21T16:05:45.869Z,101185.00
2022-08-21T16:08:13.815Z,101172.00
2022-08-21T16:10:41.067Z,101200.00
2022-08-21T16:13:17.473Z,101202.00
2022-08-21T16:15:44.591Z,101191.00
2022-08-21T16:18:11.626Z,101196.00
2022-08-21T16:20:38.446Z,101185.00
2022-08-21T16:23:36.461Z,101172.00
2022-08-21T16:26:03.874Z,101186.00
2022-08-21T16:28:32.245Z,101180.00
2022-08-21T16:30:59.435Z,101172.00
2022-08-21T16:33:29.100Z,101175.00
2022-08-21T16:35:56.030Z,101182.00
2022-08-21T16:38:24.463Z,101171.00
2022-08-21T16:40:52.329Z,101162.00
2022-08-21T16:43:27.191Z,101166.00
2022-08-21T16:45:55.671Z,101166.00
2022-08-21T16:48:23.931Z,101155.00
2022-08-21T16:50:51.283Z,101153.00
2022-08-21T16:53:18.123Z,101161.00
2022-08-21T16:55:45.321Z,101160.00
2022-08-21T16:58:27.953Z,101162.00
2022-08-21T17:00:55.649Z,101162.00
2022-08-21T17:03:28.683Z,101160.00
2022-08-21T17:05:55.512Z,101154.00
2022-08-21T17:08:22.586Z,101155.00
2022-08-21T17:10:50.705Z,101164.00
2022-08-21T17:13:17.866Z,101156.00
2022-08-21T17:15:45.415Z,101163.00
2022-08-21T17:18:15.746Z,101157.00
2022-08-21T17:20:42.953Z,101164.00
2022-08-21T17:23:10.055Z,101163.00
2022-08-21T17:25:41.985Z,101161.00
2022-08-21T17:28:11.093Z,101159.00
2022-08-21T17:30:42.768Z,101153.00
2022-08-21T17:33:09.572Z,101172.00
2022-08-21T17:35:36.391Z,101186.00
2022-08-21T17:38:03.211Z,101187.00
2022-08-21T17:40:31.286Z,101179.00
2022-08-21T17:43:04.169Z,101183.00
2022-08-21T17:45:31.083Z,101181.00
2022-08-21T17:48:00.960Z,101175.00
2022-08-21T17:50:27.864Z,101175.00
2022-08-21T17:52:54.730Z,101183.00
2022-08-21T17:55:21.733Z,101172.00
2022-08-21T17:57:50.237Z,101179.00
2022-08-21T18:00:18.991Z,101179.00
2022-08-21T18:02:47.904Z,101174.00
2022-08-21T18:05:14.824Z,101178.00
2022-08-21T18:07:42.026Z,101174.00
2022-08-21T18:10:11.761Z,101166.00
2022-08-21T18:12:43.109Z,101174.00
2022-08-21T18:15:12.104Z,101169.00
2022-08-21T18:17:40.650Z,101182.00
2022-08-21T18:20:08.906Z,101180.00
2022-08-21T18:22:35.755Z,101193.00
2022-08-21T18:25:02.878Z,101185.00
2022-08-21T18:27:35.949Z,101186.00
2022-08-21T18:30:09.207Z,101190.00
2022-08-21T18:32:41.796Z,101182.00
2022-08-21T18:35:16.726Z,101181.00
2022-08-21T18:37:45.176Z,101190.00
2022-08-21T18:42:55.806Z,101183.00
2022-08-21T18:45:28.743Z,101186.00
2022-08-21T18:48:06.089Z,101181.00
2022-08-21T18:50:43.848Z,101190.00
2022-08-21T18:53:27.779Z,101182.00
2022-08-21T18:56:15.952Z,101189.00
2022-08-21T18:59:00.344Z,101190.00
2022-08-21T19:01:28.586Z,101195.00
2022-08-21T19:03:57.916Z,101198.00
2022-08-21T19:06:34.960Z,101193.00
2022-08-21T19:09:06.962Z,101197.00
2022-08-21T19:11:34.898Z,101195.00
2022-08-21T19:14:04.628Z,101201.00
2022-08-21T19:16:32.541Z,101204.00
2022-08-21T19:19:01.284Z,101206.00
2022-08-21T19:21:28.726Z,101199.00
2022-08-21T19:23:56.852Z,101204.00
2022-08-21T19:26:27.300Z,101203.00
2022-08-21T19:28:59.628Z,101210.00
2022-08-21T19:31:29.406Z,101206.00
2022-08-21T19:34:15.719Z,101210.00
2022-08-21T19:36:42.838Z,101203.00
2022-08-21T19:39:11.111Z,101210.00
2022-08-21T19:41:45.345Z,101208.00
2022-08-21T19:44:20.691Z,101200.00
2022-08-21T19:46:49.974Z,101197.00
2022-08-21T19:49:21.190Z,101199.00
2022-08-21T19:51:49.480Z,101203.00
2022-08-21T19:54:20.033Z,101205.00
2022-08-21T19:56:47.284Z,101207.00
2022-08-21T19:59:18.533Z,101206.00
2022-08-21T20:01:51.964Z,101214.00
2022-08-21T20:04:19.440Z,101211.00
2022-08-21T20:06:47.094Z,101229.00
2022-08-21T20:09:14.292Z,101223.00
2022-08-21T20:11:47.211Z,101229.00
2022-08-21T20:14:17.294Z,101234.00
2022-08-21T20:16:44.363Z,101225.00
2022-08-21T20:19:11.323Z,101232.00
2022-08-21T20:21:43.772Z,101231.00
2022-08-21T20:24:15.092Z,101228.00
2022-08-21T20:26:49.339Z,101230.00
2022-08-21T20:29:23.985Z,101235.00
2022-08-21T20:31:55.846Z,101251.00
2022-08-21T20:34:22.638Z,101237.00
2022-08-21T20:36:53.307Z,101233.00
2022-08-21T20:39:23.941Z,101248.00
2022-08-21T20:41:52.614Z,101244.00
2022-08-21T20:44:19.578Z,101247.00
2022-08-21T20:46:46.531Z,101243.00
2022-08-21T20:49:17.487Z,101234.00
2022-08-21T20:51:49.334Z,101238.00
2022-08-21T20:54:30.325Z,101239.00
2022-08-21T20:57:03.300Z,101234.00
2022-08-21T20:59:33.237Z,101243.00
2022-08-21T21:02:37.074Z,101239.00
2022-08-21T21:05:29.972Z,101244.00
2022-08-21T21:08:15.619Z,101238.00
2022-08-21T21:11:06.123Z,101241.00
2022-08-21T21:13:40.408Z,101241.00
2022-08-21T21:16:19.565Z,101232.00
2022-08-21T21:18:56.761Z,101234.00
2022-08-21T21:21:33.346Z,101252.00
2022-08-21T21:24:11.943Z,101247.00
2022-08-21T21:26:44.610Z,101236.00
2022-08-21T21:29:45.069Z,101249.00
2022-08-21T21:32:18.018Z,101251.00
2022-08-21T21:34:46.495Z,101245.00
2022-08-21T21:37:25.608Z,101254.00
2022-08-21T21:40:08.763Z,101247.00
2022-08-21T21:42:54.204Z,101247.00
2022-08-21T21:45:43.963Z,101252.00
2022-08-21T21:48:40.179Z,101251.00
2022-08-21T21:51:20.847Z,101250.00
2022-08-21T21:54:07.102Z,101254.00
2022-08-21T21:56:55.904Z,101262.00
2022-08-21T21:59:55.912Z,101264.00
2022-08-21T22:02:34.761Z,101267.00
2022-08-21T22:05:14.695Z,101255.00
2022-08-21T22:08:08.236Z,101258.00
2022-08-21T22:10:57.544Z,101261.00
2022-08-21T22:13:47.449Z,101266.00
2022-08-21T22:16:15.061Z,101264.00
2022-08-21T22:18:54.739Z,101259.00
2022-08-21T22:21:33.470Z,101254.00
2022-08-21T22:24:14.070Z,101254.00
2022-08-21T22:26:48.488Z,101256.00
2022-08-21T22:29:18.310Z,101263.00
2022-08-21T22:32:22.065Z,101262.00
2022-08-21T22:35:04.038Z,101265.00
2022-08-21T22:37:39.506Z,101266.00
2022-08-21T22:40:07.945Z,101276.00
2022-08-21T22:42:34.927Z,101268.00
2022-08-21T22:45:12.088Z,101273.00
2022-08-21T22:47:47.395Z,101273.00
2022-08-21T22:50:31.769Z,101276.00
2022-08-21T22:53:07.695Z,101277.00
2022-08-21T22:55:43.656Z,101270.00
2022-08-21T22:58:18.177Z,101269.00
2022-08-21T23:01:07.163Z,101268.00
2022-08-21T23:03:46.964Z,101261.00
2022-08-21T23:06:26.434Z,101267.00
2022-08-21T23:08:53.752Z,101268.00
2022-08-21T23:11:26.311Z,101258.00
2022-08-21T23:13:55.350Z,101278.00
2022-08-21T23:16:30.093Z,101272.00
2022-08-21T23:19:13.063Z,101269.00
2022-08-21T23:21:40.776Z,101271.00
2022-08-21T23:24:34.532Z,101270.00
2022-08-21T23:27:07.754Z,101262.00
2022-08-21T23:30:07.616Z,101268.00
2022-08-21T23:32:56.273Z,101272.00
2022-08-21T23:35:58.739Z,101270.00
2022-08-21T23:41:55.530Z,101266.00
2022-08-21T23:44:37.876Z,101259.00
2022-08-21T23:50:43.116Z,101269.00
2022-08-21T23:53:33.662Z,101266.00
2022-08-21T23:56:12.731Z,101271.00
2022-08-21T23:59:05.796Z,101268.00
